Time;durP1;ratioP1;P1;durP2;ratioP2;P2;SDS_P1;SDS_P2;PMS_P1;PMS_P2;Temp;Humidity;BMP_temperature;BMP_pressure;BME280_temperature;BME280_humidity;BME280_pressure;Samples;Min_cycle;Max_cycle;Signal;HPM_P1;HPM_P2
2023/10/20 00:00:06;;;;;;;17.42;12.07;;;7.70;99.90;;;;;;4953193;28;20401;-68
2023/10/20 00:02:35;;;;;;;23.50;12.50;;;7.80;99.90;;;;;;4944043;29;20101;-68
2023/10/20 00:05:04;;;;;;;21.08;12.40;;;8.20;99.90;;;;;;4963138;28;20511;-69
2023/10/20 00:07:30;;;;;;;21.30;12.45;;;7.80;99.90;;;;;;4946300;28;20066;-68
2023/10/20 00:09:56;;;;;;;22.48;12.00;;;7.70;99.90;;;;;;4945325;28;20117;-69
2023/10/20 00:12:22;;;;;;;22.75;13.27;;;7.90;99.90;;;;;;4960478;28;20059;-68
2023/10/20 00:14:47;;;;;;;23.83;12.73;;;7.70;99.90;;;;;;4960824;28;20043;-69
2023/10/20 00:17:14;;;;;;;23.75;12.60;;;7.70;99.90;;;;;;4963094;28;20542;-69
2023/10/20 00:19:39;;;;;;;26.15;13.70;;;7.80;99.90;;;;;;4964093;28;20089;-69
2023/10/20 00:22:05;;;;;;;24.42;13.20;;;7.70;99.90;;;;;;4963482;28;20075;-68
2023/10/20 00:24:31;;;;;;;22.58;12.88;;;7.60;99.90;;;;;;4961065;28;20054;-68
2023/10/20 00:26:57;;;;;;;25.13;13.75;;;7.70;99.90;;;;;;4960479;28;20824;-69
2023/10/20 00:29:22;;;;;;;23.52;13.57;;;7.70;99.90;;;;;;4960619;28;20062;-69
2023/10/20 00:31:48;;;;;;;27.80;13.32;;;7.80;99.90;;;;;;4960929;28;20114;-70
2023/10/20 00:34:13;;;;;;;26.08;13.60;;;7.70;99.90;;;;;;4943352;28;20043;-70
2023/10/20 00:36:39;;;;;;;24.58;13.30;;;7.70;99.90;;;;;;4963407;28;20137;-69
2023/10/20 00:39:06;;;;;;;27.55;14.88;;;7.70;99.90;;;;;;4963270;28;20117;-70
2023/10/20 00:41:34;;;;;;;24.15;13.43;;;7.70;99.90;;;;;;4960866;28;20058;-70
2023/10/20 00:44:00;;;;;;;29.50;14.48;;;7.80;99.90;;;;;;4942350;29;20047;-69
2023/10/20 00:46:26;;;;;;;24.70;13.75;;;7.60;99.90;;;;;;4960763;28;20074;-69
2023/10/20 00:48:52;;;;;;;23.65;13.52;;;7.60;99.90;;;;;;4960075;28;20096;-70
2023/10/20 00:51:18;;;;;;;28.30;15.93;;;7.70;99.90;;;;;;4962877;28;20034;-68
2023/10/20 00:53:45;;;;;;;27.23;14.95;;;7.70;99.90;;;;;;4962556;28;20502;-69
2023/10/20 00:56:11;;;;;;;24.38;15.00;;;7.70;99.90;;;;;;4960297;28;20047;-69
2023/10/20 00:58:37;;;;;;;32.42;15.07;;;7.70;99.90;;;;;;4941935;28;20398;-68
2023/10/20 01:01:06;;;;;;;34.40;16.70;;;7.60;99.90;;;;;;4963558;28;20047;-69
2023/10/20 01:03:33;;;;;;;30.35;16.20;;;7.60;99.90;;;;;;4963430;28;20475;-68
2023/10/20 01:06:01;;;;;;;33.08;17.02;;;7.60;99.90;;;;;;4960976;28;20097;-68
2023/10/20 01:08:26;;;;;;;29.50;16.23;;;7.60;99.90;;;;;;4940315;28;20097;-70
2023/10/20 01:10:55;;;;;;;35.13;17.60;;;7.60;99.90;;;;;;4945362;28;20050;-70
2023/10/20 01:13:23;;;;;;;33.13;17.33;;;7.60;99.90;;;;;;4959926;28;20076;-69
2023/10/20 01:15:50;;;;;;;37.03;17.05;;;7.60;99.90;;;;;;4942736;29;20055;-71
2023/10/20 01:18:15;;;;;;;33.50;17.17;;;7.70;99.90;;;;;;4961901;28;20539;-69
2023/10/20 01:20:41;;;;;;;37.13;17.55;;;7.60;99.90;;;;;;4962848;28;20100;-69
2023/10/20 01:23:07;;;;;;;34.53;17.10;;;7.60;99.90;;;;;;4944709;28;20039;-69
2023/10/20 01:25:32;;;;;;;35.83;17.13;;;7.60;99.90;;;;;;4959863;28;20065;-70
2023/10/20 01:27:58;;;;;;;35.67;17.27;;;7.60;99.90;;;;;;4959503;28;20418;-71
2023/10/20 01:30:25;;;;;;;36.88;17.60;;;7.60;99.90;;;;;;4959250;28;20054;-70
2023/10/20 01:32:51;;;;;;;33.83;17.50;;;7.60;99.90;;;;;;4959585;28;20047;-69
2023/10/20 01:35:17;;;;;;;38.80;18.50;;;7.60;99.90;;;;;;4960131;28;20090;-69
2023/10/20 01:37:43;;;;;;;45.47;19.48;;;7.60;99.90;;;;;;4962930;28;20039;-68
2023/10/20 01:40:11;;;;;;;37.08;18.52;;;7.60;99.90;;;;;;4962417;28;20096;-69
2023/10/20 01:42:37;;;;;;;40.45;18.55;;;7.60;99.90;;;;;;4960387;28;20039;-69
2023/10/20 01:45:04;;;;;;;34.30;17.38;;;7.60;99.90;;;;;;4945211;28;20490;-70
2023/10/20 01:47:30;;;;;;;33.65;16.95;;;7.60;99.90;;;;;;4962095;28;20051;-69
2023/10/20 01:49:56;;;;;;;39.85;19.70;;;7.70;99.90;;;;;;4960609;28;20395;-68
2023/10/20 01:52:22;;;;;;;40.55;18.42;;;7.60;99.90;;;;;;4945180;28;20058;-68
2023/10/20 01:54:48;;;;;;;44.17;19.38;;;7.60;99.90;;;;;;4963711;28;20050;-70
2023/10/20 01:57:13;;;;;;;43.10;20.17;;;7.60;99.90;;;;;;4963413;28;20043;-70
2023/10/20 01:59:39;;;;;;;37.90;19.13;;;7.60;99.90;;;;;;4945696;28;20451;-70
2023/10/20 02:02:05;;;;;;;37.60;19.58;;;7.60;99.90;;;;;;4965000;28;20495;-70
2023/10/20 02:04:31;;;;;;;46.97;19.30;;;7.70;99.90;;;;;;4945911;29;20483;-69
2023/10/20 02:06:56;;;;;;;43.35;19.67;;;7.70;99.90;;;;;;4947678;28;20388;-68
2023/10/20 02:09:25;;;;;;;42.78;18.58;;;7.70;99.90;;;;;;4966175;28;20049;-69
2023/10/20 02:11:58;;;;;;;37.85;17.65;;;7.70;99.90;;;;;;4948179;28;20063;-71
2023/10/20 02:14:25;;;;;;;43.40;19.95;;;7.60;99.90;;;;;;4962418;28;20114;-69
2023/10/20 02:16:51;;;;;;;42.85;20.00;;;7.60;99.90;;;;;;4962904;28;20051;-68
2023/10/20 02:19:17;;;;;;;38.85;19.58;;;7.60;99.90;;;;;;4965532;28;20065;-69
2023/10/20 02:21:42;;;;;;;37.70;17.95;;;7.60;99.90;;;;;;4961705;28;20055;-71
2023/10/20 02:24:08;;;;;;;36.47;17.85;;;7.60;99.90;;;;;;4963498;28;20051;-69
2023/10/20 02:26:34;;;;;;;36.50;17.88;;;7.60;99.90;;;;;;4948804;28;20283;-69
2023/10/20 02:29:00;;;;;;;36.15;18.80;;;7.60;99.90;;;;;;4948150;28;20469;-68
2023/10/20 02:31:25;;;;;;;32.97;16.02;;;7.70;99.90;;;;;;4963634;28;20070;-69
2023/10/20 02:33:51;;;;;;;38.63;17.90;;;7.60;99.90;;;;;;4945071;29;20052;-70
2023/10/20 02:36:20;;;;;;;38.97;19.27;;;7.60;99.90;;;;;;4945703;28;20094;-68
2023/10/20 02:38:47;;;;;;;35.70;18.02;;;7.70;99.90;;;;;;4965719;28;20046;-69
2023/10/20 02:41:14;;;;;;;37.13;17.27;;;7.60;99.90;;;;;;4965338;28;20050;-68
2023/10/20 02:43:40;;;;;;;34.22;18.15;;;7.70;99.90;;;;;;4958354;28;20055;-68
2023/10/20 02:46:07;;;;;;;36.85;17.45;;;7.60;99.90;;;;;;4948176;28;20490;-69
2023/10/20 02:48:33;;;;;;;36.08;17.20;;;7.60;99.90;;;;;;4964901;28;20051;-70
2023/10/20 02:51:12;;;;;;;37.10;18.08;;;7.60;99.90;;;;;;4962610;28;20079;-68
2023/10/20 02:53:39;;;;;;;33.45;16.58;;;7.70;99.90;;;;;;4962738;28;20165;-71
2023/10/20 02:56:18;;;;;;;33.83;16.83;;;7.70;99.90;;;;;;4965228;28;20058;-69
2023/10/20 02:58:45;;;;;;;34.78;18.17;;;7.60;99.90;;;;;;4964317;28;20047;-68
2023/10/20 03:01:17;;;;;;;38.95;17.67;;;7.60;99.90;;;;;;4962429;28;20043;-69
2023/10/20 03:03:44;;;;;;;34.08;17.25;;;7.60;99.90;;;;;;4951786;28;20062;-70
2023/10/20 03:06:10;;;;;;;38.55;18.67;;;7.60;99.90;;;;;;4960853;28;20071;-70
2023/10/20 03:08:37;;;;;;;33.05;17.15;;;7.60;99.90;;;;;;4962322;28;20048;-69
2023/10/20 03:11:04;;;;;;;34.05;18.60;;;7.70;99.90;;;;;;4961840;28;20073;-73
2023/10/20 03:13:31;;;;;;;34.95;18.92;;;7.70;99.90;;;;;;4963094;28;20410;-69
2023/10/20 03:15:56;;;;;;;36.13;17.50;;;7.60;99.90;;;;;;4964301;28;20491;-68
2023/10/20 03:18:23;;;;;;;34.45;18.40;;;7.60;99.90;;;;;;4964816;28;20074;-69
2023/10/20 03:20:49;;;;;;;38.25;19.30;;;7.70;99.90;;;;;;4948088;29;20086;-68
2023/10/20 03:23:15;;;;;;;33.63;18.20;;;7.60;99.90;;;;;;4963286;28;20059;-70
2023/10/20 03:25:42;;;;;;;38.88;18.48;;;7.60;99.90;;;;;;4956589;28;20074;-72
2023/10/20 03:28:07;;;;;;;35.50;18.25;;;7.70;99.90;;;;;;4967063;28;20518;-68
2023/10/20 03:30:41;;;;;;;33.80;17.77;;;7.60;99.90;;;;;;4961350;28;20070;-69
2023/10/20 03:33:08;;;;;;;34.83;18.05;;;7.60;99.90;;;;;;4961858;28;20044;-69
2023/10/20 03:35:33;;;;;;;33.08;17.60;;;7.70;99.90;;;;;;4948788;28;20086;-69
2023/10/20 03:38:00;;;;;;;31.00;16.25;;;7.50;99.90;;;;;;4962028;28;20039;-68
2023/10/20 03:40:40;;;;;;;33.42;17.13;;;7.60;99.90;;;;;;4965141;28;20105;-69
2023/10/20 03:43:08;;;;;;;30.60;16.63;;;7.60;99.90;;;;;;4950067;28;20491;-69
2023/10/20 03:45:51;;;;;;;31.60;16.90;;;7.60;99.90;;;;;;4939909;28;20051;-69
2023/10/20 03:48:19;;;;;;;34.38;16.75;;;7.60;99.90;;;;;;4940181;29;20043;-70
2023/10/20 03:50:47;;;;;;;32.80;16.77;;;7.50;99.90;;;;;;4964559;28;20062;-69
2023/10/20 03:53:26;;;;;;;29.10;15.65;;;7.60;99.90;;;;;;4961117;28;20043;-69
2023/10/20 03:56:04;;;;;;;36.30;16.80;;;7.50;99.90;;;;;;4946563;28;20051;-69
2023/10/20 03:58:30;;;;;;;31.40;15.52;;;7.50;99.90;;;;;;4961034;28;20058;-70
2023/10/20 04:00:57;;;;;;;25.42;15.00;;;7.60;99.90;;;;;;4945253;28;20062;-68
2023/10/20 04:03:25;;;;;;;28.80;15.57;;;7.50;99.90;;;;;;4962833;28;20042;-70
2023/10/20 04:05:51;;;;;;;27.48;15.15;;;7.50;99.90;;;;;;4963784;28;20486;-69
2023/10/20 04:08:18;;;;;;;30.95;16.73;;;7.50;99.90;;;;;;4964168;28;20375;-68
2023/10/20 04:10:44;;;;;;;32.38;16.02;;;7.50;99.90;;;;;;4962920;28;20047;-69
2023/10/20 04:13:12;;;;;;;31.45;16.38;;;7.40;99.90;;;;;;4960159;28;20513;-68
2023/10/20 04:15:39;;;;;;;28.10;15.35;;;7.50;99.90;;;;;;4928486;28;20063;-69
2023/10/20 04:18:05;;;;;;;27.55;14.20;;;7.50;99.90;;;;;;4943652;28;20055;-69
2023/10/20 04:20:37;;;;;;;27.75;14.60;;;7.40;99.90;;;;;;4961290;28;20122;-71
2023/10/20 04:23:04;;;;;;;24.33;14.70;;;7.50;99.90;;;;;;4943806;28;20055;-70
2023/10/20 04:25:33;;;;;;;27.58;14.48;;;7.40;99.90;;;;;;4962166;28;20050;-69
2023/10/20 04:28:12;;;;;;;22.20;13.38;;;7.40;99.90;;;;;;4962219;28;20442;-69
2023/10/20 04:41:55;;;;;;;19.95;12.25;;;7.50;99.90;;;;;;4876721;29;20037;-69
2023/10/20 04:54:51;;;;;;;22.98;12.00;;;7.50;99.90;;;;;;4866701;29;20060;-68
2023/10/20 04:59:44;;;;;;;19.95;11.93;;;7.40;99.90;;;;;;4884761;29;20053;-71
2023/10/20 05:02:23;;;;;;;21.25;10.73;;;7.50;99.90;;;;;;4880460;29;20052;-69
2023/10/20 05:04:51;;;;;;;19.25;10.85;;;7.50;99.90;;;;;;4874513;29;20053;-69
2023/10/20 05:07:18;;;;;;;20.50;11.18;;;7.40;99.90;;;;;;4880500;29;20134;-69
2023/10/20 05:09:49;;;;;;;16.65;10.05;;;7.40;99.90;;;;;;4884182;29;20057;-68
2023/10/20 05:12:15;;;;;;;16.05;9.52;;;7.40;99.90;;;;;;4892290;28;20479;-70
2023/10/20 05:14:40;;;;;;;18.10;10.10;;;7.50;99.90;;;;;;4960870;28;20058;-69
2023/10/20 05:17:10;;;;;;;19.75;9.20;;;7.40;99.90;;;;;;4959166;28;20090;-71
2023/10/20 05:19:36;;;;;;;17.08;10.20;;;7.40;99.90;;;;;;4942561;29;20517;-70
2023/10/20 05:22:01;;;;;;;16.45;9.10;;;7.40;99.90;;;;;;4962792;28;20074;-69
2023/10/20 05:24:27;;;;;;;14.45;8.85;;;7.40;99.90;;;;;;4962883;28;20074;-70
2023/10/20 05:26:53;;;;;;;14.70;8.38;;;7.40;99.90;;;;;;4944437;28;20051;-71
2023/10/20 05:29:19;;;;;;;14.27;9.20;;;7.50;99.90;;;;;;4959279;28;20130;-70
2023/10/20 05:31:45;;;;;;;16.15;8.18;;;7.40;99.90;;;;;;4959709;28;20456;-69
2023/10/20 05:34:12;;;;;;;13.48;8.48;;;7.40;99.90;;;;;;4962024;28;20606;-68
2023/10/20 05:36:37;;;;;;;15.57;8.05;;;7.40;99.90;;;;;;4963661;28;20045;-69
2023/10/20 05:39:03;;;;;;;15.18;8.73;;;7.50;99.90;;;;;;4939996;28;20126;-70
2023/10/20 05:41:29;;;;;;;12.48;7.70;;;7.50;99.90;;;;;;4967014;28;20146;-70
2023/10/20 05:43:55;;;;;;;12.93;8.05;;;7.40;99.90;;;;;;4959844;28;20443;-70
2023/10/20 05:46:21;;;;;;;13.07;7.90;;;7.50;99.90;;;;;;4961680;28;20051;-69
2023/10/20 05:48:47;;;;;;;13.52;7.32;;;7.40;99.90;;;;;;4962302;28;20046;-69
2023/10/20 05:51:13;;;;;;;14.30;7.18;;;7.40;99.90;;;;;;4962396;28;20458;-69
2023/10/20 05:53:39;;;;;;;14.52;7.88;;;7.40;99.90;;;;;;4960883;28;20446;-69
2023/10/20 05:56:04;;;;;;;12.43;7.28;;;7.40;99.90;;;;;;4962948;28;20061;-70
2023/10/20 05:58:32;;;;;;;13.57;7.25;;;7.40;99.90;;;;;;4943277;28;20093;-69
2023/10/20 06:01:06;;;;;;;12.13;7.05;;;7.50;99.90;;;;;;4953808;28;20079;-70
2023/10/20 06:03:32;;;;;;;12.00;6.65;;;7.50;99.90;;;;;;4964912;28;20122;-70
2023/10/20 06:05:59;;;;;;;12.10;7.05;;;7.50;99.90;;;;;;4942188;29;20134;-68
2023/10/20 06:08:25;;;;;;;11.10;6.30;;;7.50;99.90;;;;;;4942214;29;20122;-71
2023/10/20 06:10:52;;;;;;;10.93;6.80;;;7.50;99.90;;;;;;4961446;28;20046;-70
2023/10/20 06:13:18;;;;;;;12.15;6.63;;;7.50;99.90;;;;;;4942066;29;20138;-68
2023/10/20 06:15:44;;;;;;;9.07;5.38;;;7.50;99.90;;;;;;4960807;28;20114;-71
2023/10/20 06:18:10;;;;;;;11.65;6.20;;;7.60;99.90;;;;;;4962445;28;20077;-71
2023/10/20 06:20:39;;;;;;;11.40;6.45;;;7.50;99.90;;;;;;4962292;28;20134;-70
2023/10/20 06:23:05;;;;;;;11.20;5.70;;;7.50;99.90;;;;;;4936171;29;20036;-69
2023/10/20 06:25:35;;;;;;;11.80;5.95;;;7.50;99.90;;;;;;4963695;28;20042;-70
2023/10/20 06:28:01;;;;;;;9.27;5.75;;;7.50;99.90;;;;;;4942575;28;20050;-70
2023/10/20 06:30:27;;;;;;;11.15;6.32;;;7.60;99.90;;;;;;4959325;28;20059;-67
2023/10/20 06:35:48;;;;;;;13.38;5.85;;;7.60;99.90;;;;;;4944784;28;20053;-69
2023/10/20 06:38:17;;;;;;;10.65;5.50;;;7.60;99.90;;;;;;4960033;28;20053;-69
2023/10/20 06:40:42;;;;;;;12.43;5.28;;;7.60;99.90;;;;;;4960821;28;20062;-72
2023/10/20 06:43:08;;;;;;;9.50;5.15;;;7.60;99.90;;;;;;4963550;28;20031;-69
2023/10/20 06:45:34;;;;;;;9.50;5.30;;;7.60;99.90;;;;;;4965833;28;20039;-70
2023/10/20 06:48:00;;;;;;;8.07;4.32;;;7.60;99.90;;;;;;4965800;28;20089;-70
2023/10/20 06:50:26;;;;;;;8.35;4.18;;;7.60;99.90;;;;;;4962672;28;20470;-70
2023/10/20 06:52:53;;;;;;;9.35;4.35;;;7.70;99.90;;;;;;4962516;28;20054;-69
2023/10/20 06:55:19;;;;;;;7.00;3.67;;;7.70;99.90;;;;;;4960845;28;20415;-72
2023/10/20 06:57:45;;;;;;;7.47;3.75;;;7.60;99.90;;;;;;4948302;28;20082;-71
2023/10/20 07:00:17;;;;;;;7.35;4.07;;;7.60;99.90;;;;;;4965455;28;20398;-70
2023/10/20 07:02:43;;;;;;;5.93;3.80;;;7.60;99.90;;;;;;4937210;28;20444;-70
2023/10/20 07:05:10;;;;;;;9.05;3.65;;;7.60;99.90;;;;;;4962434;28;20435;-70
2023/10/20 07:07:35;;;;;;;6.72;3.33;;;7.60;99.90;;;;;;4946637;28;20063;-69
2023/10/20 07:10:02;;;;;;;5.85;3.13;;;7.60;99.90;;;;;;4961931;28;20372;-69
2023/10/20 07:12:28;;;;;;;6.72;3.50;;;7.60;99.90;;;;;;4962192;28;20055;-69
2023/10/20 07:14:54;;;;;;;9.13;3.38;;;7.90;99.90;;;;;;4937776;28;20063;-70
2023/10/20 07:17:20;;;;;;;6.55;3.03;;;7.60;99.90;;;;;;4965185;28;20441;-69
2023/10/20 07:19:45;;;;;;;6.63;3.20;;;7.60;99.90;;;;;;4963755;28;20093;-70
2023/10/20 07:22:12;;;;;;;4.85;2.58;;;7.60;99.90;;;;;;4961747;28;20082;-72
2023/10/20 07:24:39;;;;;;;4.55;2.58;;;7.70;99.90;;;;;;4961572;28;20058;-69
2023/10/20 07:27:05;;;;;;;7.63;3.10;;;7.60;99.90;;;;;;4964570;28;20082;-69
2023/10/20 07:29:31;;;;;;;5.90;3.30;;;7.60;99.90;;;;;;4947360;28;20098;-68
2023/10/20 07:31:58;;;;;;;4.53;2.28;;;7.50;99.90;;;;;;4963553;28;20082;-72
2023/10/20 07:34:25;;;;;;;4.72;2.28;;;7.60;99.90;;;;;;4939950;28;20054;-69
2023/10/20 07:36:51;;;;;;;7.80;2.60;;;7.50;99.90;;;;;;4961745;28;20046;-68
2023/10/20 07:39:16;;;;;;;4.85;2.67;;;7.50;99.90;;;;;;4967724;28;20141;-71
2023/10/20 07:41:43;;;;;;;4.80;2.38;;;7.50;99.90;;;;;;4947295;28;20043;-69
2023/10/20 07:44:15;;;;;;;4.75;2.47;;;7.40;99.90;;;;;;4963193;28;20069;-69
2023/10/20 07:46:42;;;;;;;4.10;2.20;;;7.40;99.90;;;;;;4941561;28;20086;-73
2023/10/20 07:49:11;;;;;;;5.05;2.13;;;7.40;99.90;;;;;;4927907;28;20047;-67
2023/10/20 07:51:38;;;;;;;5.32;2.25;;;7.40;99.90;;;;;;4964090;28;20105;-68
2023/10/20 07:54:04;;;;;;;4.68;2.58;;;7.40;99.90;;;;;;4964303;28;20441;-70
2023/10/20 07:56:30;;;;;;;4.40;2.30;;;7.30;99.90;;;;;;4959108;28;20047;-68
2023/10/20 07:58:56;;;;;;;4.88;2.50;;;7.40;99.90;;;;;;4930776;28;20130;-70
2023/10/20 08:01:22;;;;;;;5.72;2.58;;;7.30;99.90;;;;;;4963579;28;20046;-69
2023/10/20 08:03:47;;;;;;;5.35;2.28;;;7.40;99.90;;;;;;4961003;28;20071;-69
2023/10/20 08:06:14;;;;;;;5.60;2.55;;;7.30;99.90;;;;;;4943501;29;20047;-66
2023/10/20 08:08:40;;;;;;;4.88;2.40;;;7.30;99.90;;;;;;4960003;28;20410;-68
2023/10/20 08:11:09;;;;;;;7.00;2.42;;;7.30;99.90;;;;;;4958732;28;20055;-69
2023/10/20 08:13:34;;;;;;;7.93;2.80;;;7.30;99.90;;;;;;4962993;28;20402;-69
2023/10/20 08:16:06;;;;;;;5.85;2.78;;;7.50;99.90;;;;;;4961160;28;20047;-72
2023/10/20 08:18:34;;;;;;;5.88;2.70;;;7.30;99.90;;;;;;4962489;28;20066;-69
2023/10/20 08:21:08;;;;;;;6.10;2.63;;;7.30;99.90;;;;;;4955977;28;20762;-68
2023/10/20 08:23:35;;;;;;;5.82;2.30;;;7.20;99.90;;;;;;4939478;29;20372;-68
2023/10/20 08:26:01;;;;;;;3.70;2.10;;;7.20;99.90;;;;;;4959508;28;20061;-68
2023/10/20 08:28:27;;;;;;;5.10;2.70;;;7.30;99.90;;;;;;4957551;28;20400;-68
2023/10/20 08:31:07;;;;;;;4.72;2.53;;;7.30;99.90;;;;;;4958616;28;20185;-68
2023/10/20 08:33:35;;;;;;;5.50;2.70;;;7.20;99.90;;;;;;4958971;28;20126;-67
2023/10/20 08:36:11;;;;;;;9.77;2.70;;;7.20;99.90;;;;;;4960607;28;20047;-70
2023/10/20 08:38:39;;;;;;;4.57;2.30;;;7.30;99.90;;;;;;4937590;29;20802;-70
2023/10/20 08:41:13;;;;;;;4.50;2.35;;;7.20;99.90;;;;;;4961263;28;20049;-70
2023/10/20 08:43:42;;;;;;;6.95;2.58;;;7.60;99.90;;;;;;4963383;28;20487;-69
2023/10/20 08:46:09;;;;;;;6.70;2.58;;;7.20;99.90;;;;;;4962007;28;20057;-70
2023/10/20 08:48:39;;;;;;;5.95;2.15;;;7.20;99.90;;;;;;4942901;29;20107;-69
2023/10/20 08:51:05;;;;;;;5.75;2.67;;;7.20;99.90;;;;;;4926877;29;20055;-69
2023/10/20 08:53:36;;;;;;;10.32;3.00;;;7.20;99.90;;;;;;4946072;28;20039;-70
2023/10/20 08:56:04;;;;;;;3.95;2.10;;;7.20;99.90;;;;;;4969028;28;20047;-70
2023/10/20 08:58:30;;;;;;;4.82;2.05;;;7.20;99.90;;;;;;4943723;28;20034;-70
2023/10/20 09:00:57;;;;;;;3.67;2.10;;;7.20;99.90;;;;;;4960285;28;20046;-68
2023/10/20 09:03:25;;;;;;;6.45;2.22;;;7.20;99.90;;;;;;4959558;28;20047;-70
2023/10/20 09:06:07;;;;;;;4.20;2.10;;;7.10;99.90;;;;;;4962545;28;20035;-70
2023/10/20 09:08:37;;;;;;;4.05;1.95;;;7.10;99.90;;;;;;4961595;28;20465;-70
2023/10/20 09:11:10;;;;;;;4.07;1.92;;;7.20;99.90;;;;;;4959658;28;20055;-70
2023/10/20 09:13:38;;;;;;;5.70;2.17;;;7.10;99.90;;;;;;4943351;28;20059;-69
2023/10/20 09:16:14;;;;;;;3.75;1.80;;;7.10;99.90;;;;;;4960906;28;20047;-70
2023/10/20 09:18:48;;;;;;;3.47;1.70;;;7.10;99.90;;;;;;4960192;28;20074;-70
2023/10/20 09:21:18;;;;;;;6.53;2.13;;;7.10;99.90;;;;;;4961269;28;20529;-72
2023/10/20 09:24:04;;;;;;;5.60;1.80;;;7.00;99.90;;;;;;4960389;28;20043;-70
2023/10/20 09:26:34;;;;;;;3.60;1.88;;;7.00;99.90;;;;;;4945254;28;20050;-71
2023/10/20 09:29:00;;;;;;;4.28;1.50;;;7.30;99.90;;;;;;4943174;28;20557;-70
2023/10/20 09:31:28;;;;;;;4.20;1.50;;;7.10;99.90;;;;;;4959641;28;20082;-70
2023/10/20 09:33:54;;;;;;;3.60;1.50;;;7.10;99.90;;;;;;4942535;28;20047;-69
2023/10/20 09:36:22;;;;;;;2.45;1.27;;;7.00;99.90;;;;;;4962876;28;20043;-70
2023/10/20 09:38:53;;;;;;;3.22;1.65;;;7.00;99.90;;;;;;4962717;28;20134;-71
2023/10/20 09:41:29;;;;;;;3.30;1.40;;;7.00;99.90;;;;;;4959606;28;20046;-71
2023/10/20 09:44:06;;;;;;;3.05;1.48;;;7.00;99.90;;;;;;4959568;28;20566;-71
2023/10/20 09:46:54;;;;;;;5.43;1.90;;;7.00;99.90;;;;;;4952599;28;20109;-69
2023/10/20 09:49:26;;;;;;;4.18;1.70;;;7.00;99.90;;;;;;4959429;28;20117;-69
2023/10/20 09:51:54;;;;;;;2.03;1.13;;;7.00;99.90;;;;;;4959633;28;20050;-69
2023/10/20 09:54:22;;;;;;;4.28;1.52;;;7.00;99.90;;;;;;4966743;28;20548;-70
2023/10/20 09:56:50;;;;;;;2.67;1.20;;;7.00;99.90;;;;;;4959802;28;20475;-72
2023/10/20 09:59:18;;;;;;;2.92;1.40;;;6.90;99.90;;;;;;4959815;28;20055;-70
2023/10/20 10:01:44;;;;;;;3.50;1.90;;;7.00;99.90;;;;;;4935086;29;20051;-73
2023/10/20 10:04:10;;;;;;;2.50;1.00;;;7.00;99.90;;;;;;4955290;28;20051;-70
2023/10/20 10:06:38;;;;;;;5.72;1.23;;;7.10;99.90;;;;;;4967107;28;20045;-69
2023/10/20 10:09:08;;;;;;;2.03;0.90;;;6.90;99.90;;;;;;4942457;29;20047;-69
2023/10/20 10:11:42;;;;;;;2.30;0.90;;;6.90;99.90;;;;;;4959665;28;20059;-69
2023/10/20 10:14:17;;;;;;;2.70;1.10;;;6.90;99.90;;;;;;4962724;28;20082;-70
2023/10/20 10:16:55;;;;;;;3.20;1.33;;;7.00;99.90;;;;;;4964937;28;20039;-69
2023/10/20 10:19:27;;;;;;;1.50;0.90;;;7.10;99.90;;;;;;4945395;29;20074;-70
2023/10/20 10:21:59;;;;;;;1.73;0.98;;;6.90;99.90;;;;;;4947413;28;20423;-70
2023/10/20 10:24:25;;;;;;;3.30;1.00;;;6.90;99.90;;;;;;4960357;28;20035;-69
2023/10/20 10:26:53;;;;;;;5.55;0.90;;;6.80;99.90;;;;;;4962282;28;20086;-70
2023/10/20 10:29:39;;;;;;;4.78;0.80;;;6.90;99.90;;;;;;4945739;29;20050;-70
2023/10/20 10:32:17;;;;;;;1.50;0.75;;;7.10;99.90;;;;;;4947581;28;20059;-70
2023/10/20 10:34:48;;;;;;;1.80;0.80;;;6.80;99.90;;;;;;4945008;29;20392;-71
2023/10/20 10:37:36;;;;;;;2.22;0.98;;;6.80;99.90;;;;;;4965433;28;20149;-70
2023/10/20 10:40:09;;;;;;;7.10;0.70;;;6.80;99.90;;;;;;4964867;28;20499;-70
2023/10/20 10:42:49;;;;;;;3.38;0.73;;;6.80;99.90;;;;;;4961966;28;20410;-69
2023/10/20 10:45:27;;;;;;;1.95;0.90;;;6.80;99.90;;;;;;4945605;28;20098;-70
2023/10/20 10:48:09;;;;;;;1.88;0.73;;;6.70;99.90;;;;;;4962057;28;20464;-69
2023/10/20 10:50:42;;;;;;;2.72;0.60;;;6.80;99.90;;;;;;4935765;28;20498;-71
2023/10/20 10:53:12;;;;;;;0.73;0.50;;;6.70;99.90;;;;;;4947845;28;20101;-70
2023/10/20 10:55:39;;;;;;;1.23;0.50;;;6.70;99.90;;;;;;4937417;29;20099;-69
2023/10/20 10:58:10;;;;;;;2.65;0.90;;;6.60;99.90;;;;;;4962017;28;20487;-70
2023/10/20 11:00:37;;;;;;;1.05;0.70;;;6.70;99.90;;;;;;4964396;28;20086;-70
2023/10/20 11:03:04;;;;;;;1.60;0.43;;;6.80;99.90;;;;;;4965291;28;20042;-71
2023/10/20 11:05:32;;;;;;;3.22;0.60;;;6.70;99.90;;;;;;4946631;28;20039;-69
2023/10/20 11:08:03;;;;;;;1.35;0.80;;;6.70;99.90;;;;;;4961400;28;20050;-70
2023/10/20 11:10:34;;;;;;;3.63;0.80;;;6.70;99.90;;;;;;4942046;28;20051;-70
2023/10/20 11:13:08;;;;;;;4.65;1.00;;;6.70;99.90;;;;;;4947261;28;20664;-70
2023/10/20 11:15:35;;;;;;;1.70;0.80;;;6.70;99.90;;;;;;4964791;28;20082;-69
2023/10/20 11:18:02;;;;;;;1.42;0.60;;;6.80;99.90;;;;;;4957604;28;20119;-72
2023/10/20 11:20:32;;;;;;;2.28;0.90;;;6.70;99.90;;;;;;4964732;28;20049;-70
2023/10/20 11:22:58;;;;;;;1.25;0.70;;;6.70;99.90;;;;;;4944815;28;20055;-70
2023/10/20 11:25:26;;;;;;;0.98;0.55;;;6.70;99.90;;;;;;4961952;28;20055;-69
2023/10/20 11:27:56;;;;;;;2.42;0.60;;;6.70;99.90;;;;;;4961687;28;20062;-70
2023/10/20 11:30:26;;;;;;;1.60;0.60;;;6.80;99.90;;;;;;4965012;28;20093;-70
2023/10/20 11:32:55;;;;;;;0.93;0.45;;;6.70;99.90;;;;;;4963955;28;20070;-71
2023/10/20 11:35:24;;;;;;;0.65;0.55;;;6.80;99.90;;;;;;4958018;28;20043;-69
2023/10/20 11:38:00;;;;;;;1.88;0.50;;;6.70;99.90;;;;;;4963939;28;20490;-71
2023/10/20 11:40:26;;;;;;;3.47;0.65;;;7.30;99.90;;;;;;4937288;28;20061;-68
2023/10/20 11:42:52;;;;;;;1.73;0.60;;;6.70;99.90;;;;;;4968456;28;20038;-70
2023/10/20 11:45:18;;;;;;;5.72;1.33;;;6.70;99.90;;;;;;4962155;28;20042;-70
2023/10/20 11:47:44;;;;;;;0.70;0.38;;;6.60;99.90;;;;;;4961439;28;20055;-72
2023/10/20 11:50:11;;;;;;;0.82;0.40;;;6.60;99.90;;;;;;4961838;28;20055;-70
2023/10/20 11:52:40;;;;;;;0.90;0.40;;;6.70;99.90;;;;;;4964483;28;20088;-70
2023/10/20 11:55:10;;;;;;;1.17;0.50;;;6.60;99.90;;;;;;4947058;28;20081;-70
2023/10/20 11:57:36;;;;;;;1.95;0.68;;;6.70;99.90;;;;;;4953094;28;20051;-69
2023/10/20 12:00:07;;;;;;;0.85;0.50;;;6.60;99.90;;;;;;4960972;28;20130;-70
2023/10/20 12:02:34;;;;;;;1.00;0.50;;;6.60;99.90;;;;;;4945930;28;20063;-70
2023/10/20 12:05:00;;;;;;;1.15;0.50;;;6.60;99.90;;;;;;4946938;28;20093;-69
2023/10/20 12:07:26;;;;;;;0.90;0.50;;;6.70;99.90;;;;;;4956042;28;20055;-69
2023/10/20 12:09:52;;;;;;;1.02;0.35;;;6.70;99.90;;;;;;4963588;28;20086;-70
2023/10/20 12:12:17;;;;;;;0.50;0.38;;;6.70;99.90;;;;;;4940436;29;20091;-71
2023/10/20 12:14:44;;;;;;;0.75;0.50;;;6.60;99.90;;;;;;4942995;29;20086;-70
2023/10/20 12:17:10;;;;;;;1.48;0.50;;;6.90;99.90;;;;;;4940882;29;20142;-70
2023/10/20 12:19:36;;;;;;;1.40;0.50;;;6.70;99.90;;;;;;4940211;29;20090;-69
2023/10/20 12:22:02;;;;;;;1.35;0.43;;;6.60;99.90;;;;;;4943278;29;20054;-71
2023/10/20 12:24:28;;;;;;;1.30;0.57;;;6.60;99.90;;;;;;4945255;29;20098;-69
2023/10/20 12:26:55;;;;;;;3.22;0.60;;;6.60;99.90;;;;;;4942823;29;20062;-69
2023/10/20 12:29:22;;;;;;;0.93;0.52;;;6.60;99.90;;;;;;4941080;29;20047;-69
2023/10/20 12:31:48;;;;;;;1.30;0.50;;;6.70;99.90;;;;;;4941381;29;20058;-69
2023/10/20 12:34:14;;;;;;;0.60;0.40;;;6.60;99.90;;;;;;4933579;29;20044;-71
2023/10/20 12:36:41;;;;;;;0.88;0.57;;;6.70;99.90;;;;;;4939939;29;20059;-69
2023/10/20 12:39:07;;;;;;;1.15;0.50;;;6.90;99.90;;;;;;4941306;29;20715;-69
2023/10/20 12:41:33;;;;;;;1.25;0.50;;;6.60;99.90;;;;;;4944164;29;20089;-72
2023/10/20 12:43:59;;;;;;;0.80;0.50;;;6.60;99.90;;;;;;4942867;29;20035;-70
2023/10/20 12:46:24;;;;;;;1.25;0.50;;;6.80;99.90;;;;;;4940932;29;20062;-71
2023/10/20 12:48:50;;;;;;;0.85;0.40;;;6.70;99.90;;;;;;4942551;29;20051;-69
2023/10/20 12:51:16;;;;;;;0.63;0.40;;;6.80;99.90;;;;;;4941141;29;20526;-70
2023/10/20 12:53:42;;;;;;;1.17;0.40;;;6.70;99.90;;;;;;4944278;29;20134;-71
2023/10/20 12:56:07;;;;;;;2.28;0.55;;;6.60;99.90;;;;;;4944136;29;20454;-71
2023/10/20 12:58:35;;;;;;;0.50;0.30;;;6.70;99.90;;;;;;4939818;29;20058;-71
2023/10/20 13:01:01;;;;;;;0.75;0.38;;;6.60;99.90;;;;;;4940479;29;20051;-70
2023/10/20 13:03:27;;;;;;;0.50;0.40;;;6.60;99.90;;;;;;4947090;29;20480;-71
2023/10/20 13:05:53;;;;;;;0.77;0.40;;;6.70;99.90;;;;;;4939572;29;20086;-69
2023/10/20 13:08:19;;;;;;;0.82;0.43;;;6.60;99.90;;;;;;4939722;29;20048;-70
2023/10/20 13:10:47;;;;;;;0.70;0.35;;;6.60;99.90;;;;;;4944753;28;20410;-69
2023/10/20 13:13:19;;;;;;;1.45;0.43;;;6.60;99.90;;;;;;4945439;28;20054;-69
2023/10/20 13:15:45;;;;;;;0.47;0.38;;;6.60;99.90;;;;;;4960847;28;20418;-70
2023/10/20 13:18:12;;;;;;;1.20;0.50;;;6.60;99.90;;;;;;4945891;28;20082;-69